Bethel, Louisiana
Current Conditions -  °F | °C
As of 1:35 PM on Monday 22 Dec 2014 (Local Time) from KIER Reporting Station
Overcast Overcast  
Wind Chill: 67°   Ceiling: 2300
Heat Index: 67°   Visibility: 10mi
Dew Point: 61°   Wind: 10mph
Humidity: 82%   Direction: 190°S
Pressure: 29.62"   Gusts: 17mph
Location:  31.7926°N, 93.4001°W
Report Text: KIER 221935Z AUTO 19009G15KT 10SM SCT016 BKN023 OVC040 19/16 A2962 RMK AO2 T01930162
Loading
Personal Weather Stations






























Interactive Weather Map New forecast layout! Learn more

10-Day Weather Forecast

Advertisements
Track Severe Weather on mobile